sensor_id;sensor_type;location;lat;lon;timestamp;temperature;humidity
38241;DHT22;24037;49.536;8.500;2022-12-07T00:01:13;2.80;99.90
38241;DHT22;24037;49.536;8.500;2022-12-07T00:03:43;2.80;99.90
38241;DHT22;24037;49.536;8.500;2022-12-07T00:06:12;2.80;99.90
38241;DHT22;24037;49.536;8.500;2022-12-07T00:08:40;2.80;99.90
38241;DHT22;24037;49.536;8.500;2022-12-07T00:11:09;2.80;99.90
38241;DHT22;24037;49.536;8.500;2022-12-07T00:13:36;2.80;99.90
38241;DHT22;24037;49.536;8.500;2022-12-07T00:16:08;2.80;99.90
38241;DHT22;24037;49.536;8.500;2022-12-07T00:18:36;2.80;99.90
38241;DHT22;24037;49.536;8.500;2022-12-07T00:21:11;2.80;99.90
38241;DHT22;24037;49.536;8.500;2022-12-07T00:23:38;2.90;99.90
38241;DHT22;24037;49.536;8.500;2022-12-07T00:26:09;2.90;99.90
38241;DHT22;24037;49.536;8.500;2022-12-07T00:28:37;2.90;99.90
38241;DHT22;24037;49.536;8.500;2022-12-07T00:31:08;2.90;99.90
38241;DHT22;24037;49.536;8.500;2022-12-07T00:33:35;2.90;99.90
38241;DHT22;24037;49.536;8.500;2022-12-07T00:36:04;2.80;99.90
38241;DHT22;24037;49.536;8.500;2022-12-07T00:38:33;2.80;99.90
38241;DHT22;24037;49.536;8.500;2022-12-07T00:41:01;2.80;99.90
38241;DHT22;24037;49.536;8.500;2022-12-07T00:43:27;2.80;99.90
38241;DHT22;24037;49.536;8.500;2022-12-07T00:45:54;2.80;99.90
38241;DHT22;24037;49.536;8.500;2022-12-07T00:48:21;2.80;99.90
38241;DHT22;24037;49.536;8.500;2022-12-07T00:50:49;2.70;99.90
38241;DHT22;24037;49.536;8.500;2022-12-07T00:53:15;2.70;99.90
38241;DHT22;24037;49.536;8.500;2022-12-07T00:55:42;2.70;99.90
38241;DHT22;24037;49.536;8.500;2022-12-07T00:58:09;2.70;99.90
38241;DHT22;24037;49.536;8.500;2022-12-07T01:00:37;2.70;99.90
38241;DHT22;24037;49.536;8.500;2022-12-07T01:03:04;2.70;99.90
38241;DHT22;24037;49.536;8.500;2022-12-07T01:05:30;2.80;99.90
38241;DHT22;24037;49.536;8.500;2022-12-07T01:07:57;2.80;99.90
38241;DHT22;24037;49.536;8.500;2022-12-07T01:10:23;2.80;99.90
38241;DHT22;24037;49.536;8.500;2022-12-07T01:12:49;2.80;99.90
38241;DHT22;24037;49.536;8.500;2022-12-07T01:15:15;2.80;99.90
38241;DHT22;24037;49.536;8.500;2022-12-07T01:17:42;2.80;99.90
38241;DHT22;24037;49.536;8.500;2022-12-07T01:20:08;2.80;99.90
38241;DHT22;24037;49.536;8.500;2022-12-07T01:22:38;2.80;99.90
38241;DHT22;24037;49.536;8.500;2022-12-07T01:25:06;2.80;99.90
38241;DHT22;24037;49.536;8.500;2022-12-07T01:27:33;2.80;99.90
38241;DHT22;24037;49.536;8.500;2022-12-07T01:29:59;2.80;99.90
38241;DHT22;24037;49.536;8.500;2022-12-07T01:32:26;2.80;99.90
38241;DHT22;24037;49.536;8.500;2022-12-07T01:34:52;3.00;99.90
38241;DHT22;24037;49.536;8.500;2022-12-07T01:37:19;2.90;99.90
38241;DHT22;24037;49.536;8.500;2022-12-07T01:39:48;3.00;99.90
38241;DHT22;24037;49.536;8.500;2022-12-07T01:42:15;2.90;99.90
38241;DHT22;24037;49.536;8.500;2022-12-07T01:47:55;2.80;99.90
38241;DHT22;24037;49.536;8.500;2022-12-07T01:50:25;2.80;99.90
38241;DHT22;24037;49.536;8.500;2022-12-07T01:52:53;2.80;99.90
38241;DHT22;24037;49.536;8.500;2022-12-07T01:55:19;2.80;99.90
38241;DHT22;24037;49.536;8.500;2022-12-07T01:57:49;2.80;99.90
38241;DHT22;24037;49.536;8.500;2022-12-07T02:00:17;2.80;99.90
38241;DHT22;24037;49.536;8.500;2022-12-07T02:02:57;2.70;99.90
38241;DHT22;24037;49.536;8.500;2022-12-07T02:05:26;2.70;99.90
38241;DHT22;24037;49.536;8.500;2022-12-07T02:07:55;2.70;99.90
38241;DHT22;24037;49.536;8.500;2022-12-07T02:10:23;2.70;99.90
38241;DHT22;24037;49.536;8.500;2022-12-07T02:12:53;2.70;99.90
38241;DHT22;24037;49.536;8.500;2022-12-07T02:15:21;2.70;99.90
38241;DHT22;24037;49.536;8.500;2022-12-07T02:17:59;2.70;99.90
38241;DHT22;24037;49.536;8.500;2022-12-07T02:20:52;2.70;99.90
38241;DHT22;24037;49.536;8.500;2022-12-07T02:29:14;2.50;99.90
38241;DHT22;24037;49.536;8.500;2022-12-07T02:31:57;2.60;99.90
38241;DHT22;24037;49.536;8.500;2022-12-07T02:34:49;2.60;99.90
38241;DHT22;24037;49.536;8.500;2022-12-07T02:37:46;2.60;99.90
38241;DHT22;24037;49.536;8.500;2022-12-07T02:42:50;2.40;99.90
38241;DHT22;24037;49.536;8.500;2022-12-07T02:45:21;2.40;99.90
38241;DHT22;24037;49.536;8.500;2022-12-07T02:47:51;2.40;99.90
38241;DHT22;24037;49.536;8.500;2022-12-07T02:50:20;2.40;99.90
38241;DHT22;24037;49.536;8.500;2022-12-07T02:52:46;2.40;99.90
38241;DHT22;24037;49.536;8.500;2022-12-07T02:55:15;2.50;99.90
38241;DHT22;24037;49.536;8.500;2022-12-07T02:58:14;2.50;99.90
38241;DHT22;24037;49.536;8.500;2022-12-07T03:00:53;2.50;99.90
38241;DHT22;24037;49.536;8.500;2022-12-07T03:03:21;2.60;99.90
38241;DHT22;24037;49.536;8.500;2022-12-07T03:11:03;2.80;99.90
38241;DHT22;24037;49.536;8.500;2022-12-07T03:16:21;2.90;99.90
38241;DHT22;24037;49.536;8.500;2022-12-07T03:18:56;2.90;95.80
38241;DHT22;24037;49.536;8.500;2022-12-07T03:21:39;2.90;91.30
38241;DHT22;24037;49.536;8.500;2022-12-07T03:24:10;3.00;85.00
38241;DHT22;24037;49.536;8.500;2022-12-07T03:27:03;3.00;76.60
38241;DHT22;24037;49.536;8.500;2022-12-07T03:30:16;3.10;71.10
38241;DHT22;24037;49.536;8.500;2022-12-07T03:32:33;3.10;67.60
38241;DHT22;24037;49.536;8.500;2022-12-07T03:38:37;3.10;58.00
38241;DHT22;24037;49.536;8.500;2022-12-07T03:43:11;3.10;51.90
38241;DHT22;24037;49.536;8.500;2022-12-07T03:45:44;3.20;50.70
38241;DHT22;24037;49.536;8.500;2022-12-07T03:48:25;3.20;44.50
38241;DHT22;24037;49.536;8.500;2022-12-07T03:50:55;3.30;40.60
38241;DHT22;24037;49.536;8.500;2022-12-07T03:53:32;3.30;36.40
38241;DHT22;24037;49.536;8.500;2022-12-07T03:56:01;3.30;32.00
38241;DHT22;24037;49.536;8.500;2022-12-07T03:58:28;3.30;28.30
38241;DHT22;24037;49.536;8.500;2022-12-07T04:00:56;3.40;26.90
38241;DHT22;24037;49.536;8.500;2022-12-07T04:03:22;3.30;25.90
38241;DHT22;24037;49.536;8.500;2022-12-07T04:05:48;3.30;25.20
38241;DHT22;24037;49.536;8.500;2022-12-07T04:08:15;3.40;24.60
38241;DHT22;24037;49.536;8.500;2022-12-07T04:10:41;3.40;23.20
38241;DHT22;24037;49.536;8.500;2022-12-07T04:13:07;3.30;22.30
38241;DHT22;24037;49.536;8.500;2022-12-07T04:15:33;3.40;21.00
38241;DHT22;24037;49.536;8.500;2022-12-07T04:18:00;3.40;19.40
38241;DHT22;24037;49.536;8.500;2022-12-07T04:20:26;3.40;18.60
38241;DHT22;24037;49.536;8.500;2022-12-07T04:22:52;3.50;17.00
38241;DHT22;24037;49.536;8.500;2022-12-07T04:25:18;3.50;14.60
38241;DHT22;24037;49.536;8.500;2022-12-07T04:27:44;3.60;11.80
38241;DHT22;24037;49.536;8.500;2022-12-07T04:30:11;3.60;9.00
38241;DHT22;24037;49.536;8.500;2022-12-07T04:32:37;3.60;7.90
38241;DHT22;24037;49.536;8.500;2022-12-07T04:35:03;3.70;8.50
38241;DHT22;24037;49.536;8.500;2022-12-07T04:37:30;3.70;11.00
38241;DHT22;24037;49.536;8.500;2022-12-07T04:39:56;3.70;10.20
38241;DHT22;24037;49.536;8.500;2022-12-07T04:42:22;3.70;12.00
38241;DHT22;24037;49.536;8.500;2022-12-07T04:44:48;3.70;15.70
38241;DHT22;24037;49.536;8.500;2022-12-07T04:47:14;3.60;19.90
38241;DHT22;24037;49.536;8.500;2022-12-07T04:49:40;3.60;23.50
38241;DHT22;24037;49.536;8.500;2022-12-07T04:52:06;3.50;27.20
38241;DHT22;24037;49.536;8.500;2022-12-07T04:54:33;3.50;33.30
38241;DHT22;24037;49.536;8.500;2022-12-07T04:56:59;3.50;39.40
38241;DHT22;24037;49.536;8.500;2022-12-07T04:59:25;3.50;41.50
38241;DHT22;24037;49.536;8.500;2022-12-07T05:01:51;3.50;43.80
38241;DHT22;24037;49.536;8.500;2022-12-07T05:04:17;3.50;47.10
38241;DHT22;24037;49.536;8.500;2022-12-07T05:06:44;3.40;50.20
38241;DHT22;24037;49.536;8.500;2022-12-07T05:09:10;3.40;50.70
38241;DHT22;24037;49.536;8.500;2022-12-07T05:11:36;3.40;52.90
38241;DHT22;24037;49.536;8.500;2022-12-07T05:14:17;3.50;48.60
38241;DHT22;24037;49.536;8.500;2022-12-07T05:16:45;3.50;47.90
38241;DHT22;24037;49.536;8.500;2022-12-07T05:19:11;3.50;51.60
38241;DHT22;24037;49.536;8.500;2022-12-07T05:21:38;3.50;50.20
38241;DHT22;24037;49.536;8.500;2022-12-07T05:24:06;3.50;52.30
38241;DHT22;24037;49.536;8.500;2022-12-07T05:26:33;3.50;48.10
38241;DHT22;24037;49.536;8.500;2022-12-07T05:29:00;3.50;46.50
38241;DHT22;24037;49.536;8.500;2022-12-07T05:31:26;3.50;48.80
38241;DHT22;24037;49.536;8.500;2022-12-07T05:33:53;3.50;49.30
38241;DHT22;24037;49.536;8.500;2022-12-07T05:36:19;3.50;52.40
38241;DHT22;24037;49.536;8.500;2022-12-07T05:38:46;3.40;55.00
38241;DHT22;24037;49.536;8.500;2022-12-07T05:41:17;3.40;55.20
38241;DHT22;24037;49.536;8.500;2022-12-07T05:44:02;3.40;54.00
38241;DHT22;24037;49.536;8.500;2022-12-07T05:46:29;3.40;52.80
38241;DHT22;24037;49.536;8.500;2022-12-07T05:48:55;3.40;49.60
38241;DHT22;24037;49.536;8.500;2022-12-07T05:51:21;3.40;48.00
38241;DHT22;24037;49.536;8.500;2022-12-07T05:53:47;3.50;59.80
38241;DHT22;24037;49.536;8.500;2022-12-07T05:56:13;3.40;68.90
38241;DHT22;24037;49.536;8.500;2022-12-07T05:58:40;3.30;78.70
38241;DHT22;24037;49.536;8.500;2022-12-07T06:01:24;3.20;90.30
38241;DHT22;24037;49.536;8.500;2022-12-07T06:03:51;3.20;95.40
38241;DHT22;24037;49.536;8.500;2022-12-07T06:06:17;3.20;97.20
38241;DHT22;24037;49.536;8.500;2022-12-07T06:08:43;3.10;97.80
38241;DHT22;24037;49.536;8.500;2022-12-07T06:11:09;3.20;98.80
38241;DHT22;24037;49.536;8.500;2022-12-07T06:13:54;3.20;98.70
38241;DHT22;24037;49.536;8.500;2022-12-07T06:16:20;3.20;97.00
38241;DHT22;24037;49.536;8.500;2022-12-07T06:18:46;3.20;97.10
38241;DHT22;24037;49.536;8.500;2022-12-07T06:21:12;3.20;98.60
38241;DHT22;24037;49.536;8.500;2022-12-07T06:23:38;3.20;99.60
38241;DHT22;24037;49.536;8.500;2022-12-07T06:26:04;3.20;99.90
38241;DHT22;24037;49.536;8.500;2022-12-07T06:28:31;3.20;99.90
38241;DHT22;24037;49.536;8.500;2022-12-07T06:30:58;3.20;99.90
38241;DHT22;24037;49.536;8.500;2022-12-07T06:33:25;3.20;99.90
38241;DHT22;24037;49.536;8.500;2022-12-07T06:35:51;3.10;99.90
38241;DHT22;24037;49.536;8.500;2022-12-07T06:38:17;3.20;99.90
38241;DHT22;24037;49.536;8.500;2022-12-07T06:40:44;3.20;99.90
38241;DHT22;24037;49.536;8.500;2022-12-07T06:43:10;3.20;99.90
38241;DHT22;24037;49.536;8.500;2022-12-07T06:45:36;3.20;99.90
38241;DHT22;24037;49.536;8.500;2022-12-07T06:48:02;3.10;99.90
38241;DHT22;24037;49.536;8.500;2022-12-07T06:50:28;3.10;99.90
38241;DHT22;24037;49.536;8.500;2022-12-07T06:52:54;3.10;99.90
38241;DHT22;24037;49.536;8.500;2022-12-07T06:55:20;3.20;99.90
38241;DHT22;24037;49.536;8.500;2022-12-07T06:57:47;3.20;99.90
38241;DHT22;24037;49.536;8.500;2022-12-07T07:00:13;3.20;99.90
38241;DHT22;24037;49.536;8.500;2022-12-07T07:02:40;3.20;99.90
38241;DHT22;24037;49.536;8.500;2022-12-07T07:05:06;3.20;99.90
38241;DHT22;24037;49.536;8.500;2022-12-07T07:07:32;3.20;99.90
38241;DHT22;24037;49.536;8.500;2022-12-07T07:09:58;3.20;99.90
38241;DHT22;24037;49.536;8.500;2022-12-07T07:12:24;3.30;99.90
38241;DHT22;24037;49.536;8.500;2022-12-07T07:14:51;3.30;99.90
38241;DHT22;24037;49.536;8.500;2022-12-07T07:17:17;3.20;99.90
38241;DHT22;24037;49.536;8.500;2022-12-07T07:19:43;3.30;99.90
38241;DHT22;24037;49.536;8.500;2022-12-07T07:22:09;3.30;99.90
38241;DHT22;24037;49.536;8.500;2022-12-07T07:24:35;3.30;99.90
38241;DHT22;24037;49.536;8.500;2022-12-07T07:27:01;3.30;99.90
38241;DHT22;24037;49.536;8.500;2022-12-07T07:29:28;3.30;99.90
38241;DHT22;24037;49.536;8.500;2022-12-07T07:31:54;3.30;99.90
38241;DHT22;24037;49.536;8.500;2022-12-07T07:34:20;3.40;99.90
38241;DHT22;24037;49.536;8.500;2022-12-07T07:36:46;3.30;99.90
38241;DHT22;24037;49.536;8.500;2022-12-07T07:39:12;3.40;99.90
38241;DHT22;24037;49.536;8.500;2022-12-07T07:41:38;3.40;99.90
38241;DHT22;24037;49.536;8.500;2022-12-07T07:44:11;3.40;99.90
38241;DHT22;24037;49.536;8.500;2022-12-07T07:46:37;3.40;99.90
38241;DHT22;24037;49.536;8.500;2022-12-07T07:49:04;3.50;99.90
38241;DHT22;24037;49.536;8.500;2022-12-07T07:51:30;3.40;99.90
38241;DHT22;24037;49.536;8.500;2022-12-07T07:53:56;3.40;99.90
38241;DHT22;24037;49.536;8.500;2022-12-07T07:56:22;3.40;99.90
38241;DHT22;24037;49.536;8.500;2022-12-07T07:58:52;3.50;99.90
38241;DHT22;24037;49.536;8.500;2022-12-07T08:01:18;3.50;99.90
38241;DHT22;24037;49.536;8.500;2022-12-07T08:03:49;3.50;99.90
38241;DHT22;24037;49.536;8.500;2022-12-07T08:06:15;3.60;99.90
38241;DHT22;24037;49.536;8.500;2022-12-07T08:08:42;3.60;99.90
38241;DHT22;24037;49.536;8.500;2022-12-07T08:11:09;3.60;99.90
38241;DHT22;24037;49.536;8.500;2022-12-07T08:13:35;3.60;99.90
38241;DHT22;24037;49.536;8.500;2022-12-07T08:16:07;3.60;99.90
38241;DHT22;24037;49.536;8.500;2022-12-07T08:18:39;3.60;99.90
38241;DHT22;24037;49.536;8.500;2022-12-07T08:21:07;3.60;99.90
38241;DHT22;24037;49.536;8.500;2022-12-07T08:23:33;3.60;99.90
38241;DHT22;24037;49.536;8.500;2022-12-07T08:26:05;3.70;99.90
38241;DHT22;24037;49.536;8.500;2022-12-07T08:28:32;3.80;99.90
38241;DHT22;24037;49.536;8.500;2022-12-07T08:31:05;3.80;98.80
38241;DHT22;24037;49.536;8.500;2022-12-07T08:33:32;3.90;92.00
38241;DHT22;24037;49.536;8.500;2022-12-07T08:36:08;4.00;83.40
38241;DHT22;24037;49.536;8.500;2022-12-07T08:38:35;4.00;76.70
38241;DHT22;24037;49.536;8.500;2022-12-07T08:41:02;4.00;76.50
38241;DHT22;24037;49.536;8.500;2022-12-07T08:43:29;4.00;76.50
38241;DHT22;24037;49.536;8.500;2022-12-07T08:48:45;4.10;76.30
38241;DHT22;24037;49.536;8.500;2022-12-07T08:51:13;4.10;78.80
38241;DHT22;24037;49.536;8.500;2022-12-07T08:53:39;4.10;75.60
38241;DHT22;24037;49.536;8.500;2022-12-07T08:56:07;4.10;75.80
38241;DHT22;24037;49.536;8.500;2022-12-07T08:58:34;4.10;73.20
38241;DHT22;24037;49.536;8.500;2022-12-07T09:01:01;4.20;70.30
38241;DHT22;24037;49.536;8.500;2022-12-07T09:03:27;4.30;67.00
38241;DHT22;24037;49.536;8.500;2022-12-07T09:05:54;4.40;67.60
38241;DHT22;24037;49.536;8.500;2022-12-07T09:08:22;4.40;61.50
38241;DHT22;24037;49.536;8.500;2022-12-07T09:10:48;4.50;52.20
38241;DHT22;24037;49.536;8.500;2022-12-07T09:13:15;4.50;47.60
38241;DHT22;24037;49.536;8.500;2022-12-07T09:15:41;4.60;40.10
38241;DHT22;24037;49.536;8.500;2022-12-07T09:18:07;4.60;33.40
38241;DHT22;24037;49.536;8.500;2022-12-07T09:20:33;4.60;28.90
38241;DHT22;24037;49.536;8.500;2022-12-07T09:22:59;4.60;24.40
38241;DHT22;24037;49.536;8.500;2022-12-07T09:25:26;4.60;23.60
38241;DHT22;24037;49.536;8.500;2022-12-07T09:27:57;4.60;19.50
38241;DHT22;24037;49.536;8.500;2022-12-07T09:30:24;4.70;14.40
38241;DHT22;24037;49.536;8.500;2022-12-07T09:32:52;4.70;11.80
38241;DHT22;24037;49.536;8.500;2022-12-07T09:35:18;4.70;9.60
38241;DHT22;24037;49.536;8.500;2022-12-07T09:37:44;4.80;9.70
38241;DHT22;24037;49.536;8.500;2022-12-07T09:40:11;4.90;9.80
38241;DHT22;24037;49.536;8.500;2022-12-07T09:42:58;4.90;10.20
38241;DHT22;24037;49.536;8.500;2022-12-07T09:45:28;5.00;10.20
38241;DHT22;24037;49.536;8.500;2022-12-07T09:47:57;5.00;13.80
38241;DHT22;24037;49.536;8.500;2022-12-07T09:50:26;5.10;7.40
38241;DHT22;24037;49.536;8.500;2022-12-07T09:52:55;5.20;4.50
38241;DHT22;24037;49.536;8.500;2022-12-07T09:55:28;5.20;1.00
38241;DHT22;24037;49.536;8.500;2022-12-07T09:57:57;5.30;1.00
38241;DHT22;24037;49.536;8.500;2022-12-07T10:00:23;5.40;1.00
38241;DHT22;24037;49.536;8.500;2022-12-07T10:02:55;5.40;1.00
38241;DHT22;24037;49.536;8.500;2022-12-07T10:05:37;5.50;1.00
38241;DHT22;24037;49.536;8.500;2022-12-07T10:08:04;5.60;1.00
38241;DHT22;24037;49.536;8.500;2022-12-07T10:10:33;5.60;1.00
38241;DHT22;24037;49.536;8.500;2022-12-07T10:13:02;5.60;1.00
38241;DHT22;24037;49.536;8.500;2022-12-07T10:16:00;5.60;1.00
38241;DHT22;24037;49.536;8.500;2022-12-07T10:18:40;5.60;1.00
38241;DHT22;24037;49.536;8.500;2022-12-07T10:23:42;5.60;1.00
38241;DHT22;24037;49.536;8.500;2022-12-07T10:26:28;5.70;1.00
38241;DHT22;24037;49.536;8.500;2022-12-07T10:28:56;5.60;1.00
38241;DHT22;24037;49.536;8.500;2022-12-07T10:31:24;5.60;1.00
38241;DHT22;24037;49.536;8.500;2022-12-07T10:33:53;5.60;1.00
38241;DHT22;24037;49.536;8.500;2022-12-07T10:36:29;5.50;1.00
38241;DHT22;24037;49.536;8.500;2022-12-07T10:41:29;5.60;1.00
38241;DHT22;24037;49.536;8.500;2022-12-07T10:43:56;5.70;1.00
38241;DHT22;24037;49.536;8.500;2022-12-07T10:52:39;6.00;1.00
38241;DHT22;24037;49.536;8.500;2022-12-07T11:04:13;6.00;1.00
38241;DHT22;24037;49.536;8.500;2022-12-07T11:15:21;5.90;1.00
38241;DHT22;24037;49.536;8.500;2022-12-07T11:18:03;5.90;1.00
38241;DHT22;24037;49.536;8.500;2022-12-07T11:29:10;5.70;1.00
38241;DHT22;24037;49.536;8.500;2022-12-07T11:31:55;5.80;1.00
38241;DHT22;24037;49.536;8.500;2022-12-07T11:34:27;5.80;1.00
38241;DHT22;24037;49.536;8.500;2022-12-07T11:36:57;5.80;1.00
38241;DHT22;24037;49.536;8.500;2022-12-07T11:39:33;5.80;1.00
38241;DHT22;24037;49.536;8.500;2022-12-07T11:42:05;5.80;1.00
38241;DHT22;24037;49.536;8.500;2022-12-07T11:44:50;5.90;1.00
38241;DHT22;24037;49.536;8.500;2022-12-07T11:47:39;6.00;1.00
38241;DHT22;24037;49.536;8.500;2022-12-07T11:50:33;6.10;1.00
38241;DHT22;24037;49.536;8.500;2022-12-07T11:56:00;6.30;1.00
38241;DHT22;24037;49.536;8.500;2022-12-07T12:06:32;6.50;1.00
38241;DHT22;24037;49.536;8.500;2022-12-07T12:14:53;6.20;1.00
38241;DHT22;24037;49.536;8.500;2022-12-07T12:20:15;6.20;1.00
38241;DHT22;24037;49.536;8.500;2022-12-07T12:25:56;6.10;1.00
38241;DHT22;24037;49.536;8.500;2022-12-07T12:28:35;6.10;1.00
38241;DHT22;24037;49.536;8.500;2022-12-07T12:33:35;6.00;1.00
38241;DHT22;24037;49.536;8.500;2022-12-07T12:46:56;6.00;1.00
38241;DHT22;24037;49.536;8.500;2022-12-07T12:52:45;6.00;1.00
38241;DHT22;24037;49.536;8.500;2022-12-07T12:54:58;6.00;1.00
38241;DHT22;24037;49.536;8.500;2022-12-07T12:57:28;6.10;1.00
38241;DHT22;24037;49.536;8.500;2022-12-07T13:02:38;6.10;1.00
38241;DHT22;24037;49.536;8.500;2022-12-07T13:29:14;6.20;1.00
38241;DHT22;24037;49.536;8.500;2022-12-07T13:31:54;6.30;1.00
38241;DHT22;24037;49.536;8.500;2022-12-07T13:37:08;6.20;1.00
38241;DHT22;24037;49.536;8.500;2022-12-07T13:39:54;6.20;1.00
38241;DHT22;24037;49.536;8.500;2022-12-07T13:42:29;6.20;1.00
38241;DHT22;24037;49.536;8.500;2022-12-07T13:44:57;6.20;1.00
38241;DHT22;24037;49.536;8.500;2022-12-07T13:47:36;6.40;1.00
38241;DHT22;24037;49.536;8.500;2022-12-07T13:50:41;6.40;1.00
38241;DHT22;24037;49.536;8.500;2022-12-07T13:53:12;6.40;1.00
38241;DHT22;24037;49.536;8.500;2022-12-07T13:55:44;6.40;1.00
38241;DHT22;24037;49.536;8.500;2022-12-07T13:58:11;6.30;1.00
38241;DHT22;24037;49.536;8.500;2022-12-07T14:00:39;6.20;1.00
38241;DHT22;24037;49.536;8.500;2022-12-07T14:05:40;6.10;1.00
38241;DHT22;24037;49.536;8.500;2022-12-07T14:10:37;6.00;1.00
38241;DHT22;24037;49.536;8.500;2022-12-07T14:13:31;6.00;1.00
38241;DHT22;24037;49.536;8.500;2022-12-07T14:15:58;6.00;1.00
38241;DHT22;24037;49.536;8.500;2022-12-07T14:18:34;6.00;1.00
38241;DHT22;24037;49.536;8.500;2022-12-07T14:21:06;6.00;1.00
38241;DHT22;24037;49.536;8.500;2022-12-07T14:23:32;6.00;1.00
38241;DHT22;24037;49.536;8.500;2022-12-07T14:26:11;6.00;1.00
38241;DHT22;24037;49.536;8.500;2022-12-07T14:28:37;6.10;1.00
38241;DHT22;24037;49.536;8.500;2022-12-07T14:31:11;6.20;1.00
38241;DHT22;24037;49.536;8.500;2022-12-07T14:33:38;6.20;1.00
38241;DHT22;24037;49.536;8.500;2022-12-07T14:36:05;6.20;1.00
38241;DHT22;24037;49.536;8.500;2022-12-07T14:38:31;6.20;1.00
38241;DHT22;24037;49.536;8.500;2022-12-07T14:40:57;6.20;1.00
38241;DHT22;24037;49.536;8.500;2022-12-07T14:43:42;6.20;1.00
38241;DHT22;24037;49.536;8.500;2022-12-07T14:46:09;6.00;1.00
38241;DHT22;24037;49.536;8.500;2022-12-07T14:48:35;6.00;1.00
38241;DHT22;24037;49.536;8.500;2022-12-07T14:51:01;6.00;1.00
38241;DHT22;24037;49.536;8.500;2022-12-07T14:53:35;6.00;1.00
38241;DHT22;24037;49.536;8.500;2022-12-07T14:56:03;6.00;1.00
38241;DHT22;24037;49.536;8.500;2022-12-07T14:58:31;6.00;1.00
38241;DHT22;24037;49.536;8.500;2022-12-07T15:00:59;5.90;1.00
38241;DHT22;24037;49.536;8.500;2022-12-07T15:03:25;5.90;1.00
38241;DHT22;24037;49.536;8.500;2022-12-07T15:05:51;5.90;1.00
38241;DHT22;24037;49.536;8.500;2022-12-07T15:08:18;5.80;1.00
38241;DHT22;24037;49.536;8.500;2022-12-07T15:10:44;5.80;1.00
38241;DHT22;24037;49.536;8.500;2022-12-07T15:13:10;5.80;1.00
38241;DHT22;24037;49.536;8.500;2022-12-07T15:15:55;5.80;1.00
38241;DHT22;24037;49.536;8.500;2022-12-07T15:18:23;5.80;1.00
38241;DHT22;24037;49.536;8.500;2022-12-07T15:20:49;5.90;1.00
38241;DHT22;24037;49.536;8.500;2022-12-07T15:23:16;5.90;1.00
38241;DHT22;24037;49.536;8.500;2022-12-07T15:25:43;5.80;1.00
38241;DHT22;24037;49.536;8.500;2022-12-07T15:28:09;5.70;1.00
38241;DHT22;24037;49.536;8.500;2022-12-07T15:30:39;5.70;1.00
38241;DHT22;24037;49.536;8.500;2022-12-07T15:33:06;5.70;1.00
38241;DHT22;24037;49.536;8.500;2022-12-07T15:35:32;5.70;1.00
38241;DHT22;24037;49.536;8.500;2022-12-07T15:37:58;5.70;1.00
38241;DHT22;24037;49.536;8.500;2022-12-07T15:40:24;5.60;1.00
38241;DHT22;24037;49.536;8.500;2022-12-07T15:42:50;5.70;1.00
38241;DHT22;24037;49.536;8.500;2022-12-07T15:45:16;5.70;1.00
38241;DHT22;24037;49.536;8.500;2022-12-07T15:47:43;5.70;1.00
38241;DHT22;24037;49.536;8.500;2022-12-07T15:50:15;5.70;1.00
38241;DHT22;24037;49.536;8.500;2022-12-07T15:52:42;5.70;1.00
38241;DHT22;24037;49.536;8.500;2022-12-07T15:55:09;5.70;1.00
38241;DHT22;24037;49.536;8.500;2022-12-07T15:57:37;5.80;1.00
38241;DHT22;24037;49.536;8.500;2022-12-07T16:00:05;5.80;1.00
38241;DHT22;24037;49.536;8.500;2022-12-07T16:02:31;5.70;1.00
38241;DHT22;24037;49.536;8.500;2022-12-07T16:04:57;5.70;1.00
38241;DHT22;24037;49.536;8.500;2022-12-07T16:07:24;5.70;1.00
38241;DHT22;24037;49.536;8.500;2022-12-07T16:09:50;5.70;1.00
38241;DHT22;24037;49.536;8.500;2022-12-07T16:12:16;5.70;1.00
38241;DHT22;24037;49.536;8.500;2022-12-07T16:14:43;5.90;1.00
38241;DHT22;24037;49.536;8.500;2022-12-07T16:17:09;5.90;1.00
38241;DHT22;24037;49.536;8.500;2022-12-07T16:19:37;5.80;1.00
38241;DHT22;24037;49.536;8.500;2022-12-07T16:22:04;5.80;1.00
38241;DHT22;24037;49.536;8.500;2022-12-07T16:24:31;5.70;1.00
38241;DHT22;24037;49.536;8.500;2022-12-07T16:26:57;5.70;1.00
38241;DHT22;24037;49.536;8.500;2022-12-07T16:29:23;5.70;1.00
38241;DHT22;24037;49.536;8.500;2022-12-07T16:31:51;5.70;1.00
38241;DHT22;24037;49.536;8.500;2022-12-07T16:34:18;5.60;1.00
38241;DHT22;24037;49.536;8.500;2022-12-07T16:36:44;5.60;1.00
38241;DHT22;24037;49.536;8.500;2022-12-07T16:39:11;5.60;1.00
38241;DHT22;24037;49.536;8.500;2022-12-07T16:41:37;5.70;1.00
38241;DHT22;24037;49.536;8.500;2022-12-07T16:44:05;5.70;1.00
38241;DHT22;24037;49.536;8.500;2022-12-07T16:46:35;5.60;1.00
38241;DHT22;24037;49.536;8.500;2022-12-07T16:49:02;5.60;1.00
38241;DHT22;24037;49.536;8.500;2022-12-07T16:51:28;5.50;1.00
38241;DHT22;24037;49.536;8.500;2022-12-07T16:53:55;5.50;1.00
38241;DHT22;24037;49.536;8.500;2022-12-07T16:56:21;5.40;1.00
38241;DHT22;24037;49.536;8.500;2022-12-07T16:58:47;5.40;1.00
38241;DHT22;24037;49.536;8.500;2022-12-07T17:01:19;5.40;1.00
38241;DHT22;24037;49.536;8.500;2022-12-07T17:03:48;5.40;1.00
38241;DHT22;24037;49.536;8.500;2022-12-07T17:06:22;5.40;1.00
38241;DHT22;24037;49.536;8.500;2022-12-07T17:08:49;5.40;1.00
38241;DHT22;24037;49.536;8.500;2022-12-07T17:11:22;5.40;1.00
38241;DHT22;24037;49.536;8.500;2022-12-07T17:13:48;5.40;1.00
38241;DHT22;24037;49.536;8.500;2022-12-07T17:16:33;5.40;1.00
38241;DHT22;24037;49.536;8.500;2022-12-07T17:19:04;5.40;1.00
38241;DHT22;24037;49.536;8.500;2022-12-07T17:21:31;5.40;1.00
38241;DHT22;24037;49.536;8.500;2022-12-07T17:23:59;5.40;1.00
38241;DHT22;24037;49.536;8.500;2022-12-07T17:26:27;5.40;1.00
38241;DHT22;24037;49.536;8.500;2022-12-07T17:28:55;5.30;1.00
38241;DHT22;24037;49.536;8.500;2022-12-07T17:31:22;5.30;1.00
38241;DHT22;24037;49.536;8.500;2022-12-07T17:33:49;5.20;1.00
38241;DHT22;24037;49.536;8.500;2022-12-07T17:36:21;5.20;1.00
38241;DHT22;24037;49.536;8.500;2022-12-07T17:38:49;5.20;1.00
38241;DHT22;24037;49.536;8.500;2022-12-07T17:41:19;5.10;1.00
38241;DHT22;24037;49.536;8.500;2022-12-07T17:44:07;5.10;1.00
38241;DHT22;24037;49.536;8.500;2022-12-07T17:46:34;5.10;1.00
38241;DHT22;24037;49.536;8.500;2022-12-07T17:49:01;5.10;1.00
38241;DHT22;24037;49.536;8.500;2022-12-07T17:51:28;5.00;1.00
38241;DHT22;24037;49.536;8.500;2022-12-07T17:54:12;4.90;1.00
38241;DHT22;24037;49.536;8.500;2022-12-07T17:56:39;4.90;1.00
38241;DHT22;24037;49.536;8.500;2022-12-07T17:59:05;4.90;1.00
38241;DHT22;24037;49.536;8.500;2022-12-07T18:01:33;4.90;1.00
38241;DHT22;24037;49.536;8.500;2022-12-07T18:03:59;4.90;1.00
38241;DHT22;24037;49.536;8.500;2022-12-07T18:06:25;4.90;1.00
38241;DHT22;24037;49.536;8.500;2022-12-07T18:08:51;4.80;1.00
38241;DHT22;24037;49.536;8.500;2022-12-07T18:11:18;4.80;1.00
38241;DHT22;24037;49.536;8.500;2022-12-07T18:13:44;4.80;1.00
38241;DHT22;24037;49.536;8.500;2022-12-07T18:16:16;4.70;1.00
38241;DHT22;24037;49.536;8.500;2022-12-07T18:18:44;4.70;1.00
38241;DHT22;24037;49.536;8.500;2022-12-07T18:21:12;4.70;1.00
38241;DHT22;24037;49.536;8.500;2022-12-07T18:23:48;4.70;1.00
38241;DHT22;24037;49.536;8.500;2022-12-07T18:26:16;4.70;1.00